Flight Track Log - Related Links

Times and Time Zones

All times are in EDT time to prevent confusion due to time zone crossing. See the KAP305 flight status page for this flight to view local times or setup timezone preferences in your user account.

Time Position Orientation Groundspeed Altitude Reporting Facility
EDT Latitude Longitude Course Direction KTS MPH feet Rate Location/Type
Tue 12:46:13 PM 42.3500 -70.9833 90° East 93 107 500  Level KA90
Tue 12:46:55 PM 42.3500 -70.9667 90° East 117 135 1,100 647 Climbing KA90
Tue 12:47:55 PM 42.3167 -70.9167 132° Southeast 124 143 1,600 550 Climbing KA90
Tue 12:48:55 PM 42.3000 -70.8833 124° Southeast 119 137 2,200 600 Climbing KA90
Tue 12:49:55 PM 42.2833 -70.8500 124° Southeast 118 136 2,800 600 Climbing KA90
Tue 12:50:55 PM 42.2500 -70.8333 160° South 121 139 3,400 650 Climbing KA90
Tue 12:51:55 PM 42.2333 -70.8000 124° Southeast 118 136 4,100 632 Climbing KA90
Tue 12:52:49 PM 42.2000 -70.7833 160° South 116 133 4,600 429 Climbing KA90
Tue 12:54:01 PM 42.1667 -70.7500 143° Southeast 123 142 5,000 182 Climbing KA90
Tue 12:55:01 PM 42.1333 -70.7333 160° South 153 176 5,000  Level KA90
Tue 12:55:55 PM 42.1000 -70.7000 143° Southeast 160 184 5,000  Level KA90
Tue 12:56:44 PM 42.0667 -70.6667 143° Southeast 157 181 5,000  Level KA90
Tue 12:58:00 PM 42.0213 -70.6324 151° Southeast  Level Estimated
Tue 01:05:00 PM 41.7703 -70.4437 151° Southeast  Level Estimated
Tue 01:06:00 PM 41.7344 -70.4169 151° Southeast  Level Estimated
Tue 01:07:00 PM 41.6985 -70.3901 151° Southeast  Level Estimated
Tue 01:08:00 PM 41.6626 -70.3633 151° Southeast  Level Estimated
Tue 01:09:00 PM 41.6267 -70.3366 151° Southeast  Level Estimated
Tue 01:10:00 PM 41.5908 -70.3099 151° Southeast  Level Estimated
Tue 01:11:00 PM 41.5549 -70.2832 151° Southeast  Level Estimated
Tue 01:12:00 PM 41.5190 -70.2565 151° Southeast  Level Estimated
Tue 01:13:00 PM 41.4830 -70.2299 151° Southeast  Level Estimated
Tue 01:14:00 PM 41.4471 -70.2033 151° Southeast  Level Estimated
Tue 01:15:00 PM 41.4112 -70.1767 151° Southeast  Level Estimated
Tue 01:16:00 PM 41.3752 -70.1502 151° Southeast  Level Estimated
Tue 01:17:00 PM 41.3392 -70.1237 151° Southeast  Level Estimated
Tue 01:18:00 PM 41.3033 -70.0972 151° Southeast  Level Estimated
Tue 01:19:00 PM 41.2673 -70.0707 151° Southeast  Level Estimated
Tue 01:20:00 PM 41.2531 -70.0603 151° Southeast  Level Estimated
Tue 01:21:00 PM 41.2531 -70.0603 72° East  Level Estimated
Tue 01:22:00 PM 41.2531 -70.0603 72° East  Level Estimated
Tue 01:23:00 PM 41.2531 -70.0603 72° East  Level Estimated
Tue 01:24:00 PM 41.2531 -70.0603 72° East  Level Estimated
Tue 01:25:00 PM 41.2531 -70.0603 72° East  Level Estimated
Tue 01:26:00 PM 41.2531 -70.0603 72° East  Level Estimated
Tue 01:27:00 PM 41.2531 -70.0603 72° East  Level Estimated

Login

Don't have an account? Register now (free) for customized features, flight alerts, and more!